Argyle, NY

7:08 AM EDT on May 05, 2015 (GMT -0400)
Village of Argyle | | Change Station
CLOSE
Current Station
Personal Weather Station
Location: Argyle, NY
Elevation: 283 ft
Nearby Weather Stations

Elev 283 ft 43.24 °N, 73.49 °W | Updated 12 minutes ago

Partly Cloudy
Partly Cloudy
61.6 °F
Feels Like 61.6 °F
N
2.0
Wind Variable Wind from WNW

Today
High -- | Low -- °F
--% Chance of Precip.
Yesterday
High -- | Low -- °F
Precip. -- in
5:42 AM 7:59 PM
Full, 98% visible
Pressure 30.20 in
Visibility 10.0 miles
Clouds Clear
Dew Point 55 °F
Humidity 79%
Rainfall 0.00 in
Snow Depth Not available.
UV 0.6 out of 12
Pollen 11.40 out of 12
Air Quality Not available.
Flu Activity Widespread
METAR KGFL 051053Z AUTO 34007KT 10SM CLR 17/11 A3020 RMK AO2 SLP226 T01720106

More Conditions Fewer Conditions

Pressure 30.20 in
Visibility 10.0 miles
Clouds Clear
Dew Point 55 °F
Humidity 79%
Rainfall 0.00 in
Snow Depth Not available.
UV 0.6 out of 12
Pollen 11.40 out of 12
Air Quality Not available.
Flu Activity Widespread
METAR KGFL 051053Z AUTO 34007KT 10SM CLR 17/11 A3020 RMK AO2 SLP226 T01720106

More Conditions Fewer Conditions

Nepal has a long way to go to dig out and rebuild from a devastating earthquake. We have teamed up with several charities and organizations to make contributing to the relief effort as easy as possible.
How you can help: Portlight Strategies | Red Cross

10-Day Weather Forecast

Almanac

Astronomy

May. 05, 2015 Rise Set
Actual Time
Civil Twilight
Nautical Twilight
Astronomical Twilight
Moon
Length of Visible Light
Length of Day
Tomorrow will be .
, % of the Moon is Illuminated

Today's Extremes

State Highs State Lows

Community

WunderPhotos

Upload Photos

1,818,828 photos uploaded!

WunderBlogs® & News

Nearby

Air Quality

  Air Quality AQ Index Pollutant
Not available.

Snow Depth

Station Depth Elevation

Earthquake Activity

City Distance Mag. Time & Date
Minimum magnitude displayed is 2.5.

Coastal Water Temperatures

Place Temperature

Stations

Nearby Weather Stations

Station Location Temp. Windchill Dew Point Humidity Wind Precip. Elev Updated Type